Time;durP1;ratioP1;P1;durP2;ratioP2;P2;SDS_P1;SDS_P2;PMS_P1;PMS_P2;Temp;Humidity;BMP_temperature;BMP_pressure;BME280_temperature;BME280_humidity;BME280_pressure;Samples;Min_cycle;Max_cycle;Signal;HPM_P1;HPM_P2
2023/04/16 00:00:37;;;;;;;2.20;1.95;;;8.10;99.90;;;;;;5011478;28;20116;-88
2023/04/16 00:03:04;;;;;;;2.03;1.73;;;8.00;99.90;;;;;;4994987;28;20057;-87
2023/04/16 00:05:31;;;;;;;3.90;2.35;;;8.10;99.90;;;;;;4995151;28;20057;-88
2023/04/16 00:07:58;;;;;;;2.40;1.85;;;8.10;99.90;;;;;;5007644;28;20121;-87
2023/04/16 00:10:25;;;;;;;2.10;1.77;;;8.00;99.90;;;;;;5019272;28;20080;-86
2023/04/16 00:12:52;;;;;;;2.10;1.70;;;8.10;99.90;;;;;;5010761;28;20324;-87
2023/04/16 00:15:19;;;;;;;2.20;1.52;;;8.00;99.90;;;;;;5007139;28;20057;-87
2023/04/16 00:17:47;;;;;;;2.90;2.05;;;7.90;99.90;;;;;;4994875;28;20045;-87
2023/04/16 00:20:14;;;;;;;2.63;2.05;;;7.90;99.90;;;;;;5010390;28;20657;-86
2023/04/16 00:22:41;;;;;;;1.98;1.58;;;7.80;99.90;;;;;;5011140;28;20049;-87
2023/04/16 00:25:08;;;;;;;1.83;1.42;;;7.80;99.90;;;;;;5010791;28;20049;-88
2023/04/16 00:27:35;;;;;;;1.58;1.27;;;7.80;99.90;;;;;;5012383;28;20077;-87
2023/04/16 00:30:02;;;;;;;1.63;1.42;;;7.80;99.90;;;;;;5028845;28;20049;-88
2023/04/16 00:32:29;;;;;;;3.20;1.70;;;7.80;99.90;;;;;;5028179;28;20435;-88
2023/04/16 00:34:57;;;;;;;1.42;1.33;;;7.80;99.90;;;;;;5029521;28;20046;-89
2023/04/16 00:37:24;;;;;;;2.67;2.10;;;7.80;99.90;;;;;;5014092;28;20057;-88
2023/04/16 00:39:50;;;;;;;2.13;1.35;;;7.80;99.90;;;;;;5014165;28;20045;-87
2023/04/16 00:42:18;;;;;;;1.80;1.45;;;7.70;99.90;;;;;;5014748;28;20152;-87
2023/04/16 00:44:45;;;;;;;1.88;1.60;;;7.70;99.90;;;;;;5013693;28;20088;-87
2023/04/16 00:47:12;;;;;;;2.50;1.90;;;7.70;99.90;;;;;;5014096;28;20086;-88
2023/04/16 00:49:39;;;;;;;1.63;1.30;;;7.70;99.90;;;;;;5011730;28;20157;-87
2023/04/16 00:52:09;;;;;;;2.10;1.40;;;7.60;99.90;;;;;;5010710;28;20049;-88
2023/04/16 00:54:38;;;;;;;1.55;1.27;;;7.60;99.90;;;;;;5026802;28;20136;-87
2023/04/16 00:57:05;;;;;;;1.80;1.30;;;7.60;99.90;;;;;;5010955;28;20158;-88
2023/04/16 00:59:32;;;;;;;2.17;1.50;;;7.60;99.90;;;;;;5010157;28;20053;-87
2023/04/16 01:01:59;;;;;;;2.38;1.60;;;7.50;99.90;;;;;;5011152;28;20474;-87
2023/04/16 01:04:28;;;;;;;2.20;2.00;;;7.60;99.90;;;;;;5010518;28;20238;-87
2023/04/16 01:06:58;;;;;;;1.60;1.30;;;7.60;99.90;;;;;;5011289;28;20045;-85
2023/04/16 01:09:25;;;;;;;1.90;1.38;;;7.60;99.90;;;;;;5009249;28;20054;-87
2023/04/16 01:11:52;;;;;;;1.92;1.63;;;7.60;99.90;;;;;;5010555;28;20049;-87
2023/04/16 01:14:19;;;;;;;2.72;1.60;;;7.60;99.90;;;;;;5010883;28;20057;-88
2023/04/16 01:16:46;;;;;;;1.65;1.38;;;7.50;99.90;;;;;;5006735;28;20053;-88
2023/04/16 01:19:13;;;;;;;2.10;1.58;;;7.50;99.90;;;;;;4990852;28;20065;-88
2023/04/16 01:21:40;;;;;;;1.98;1.30;;;7.40;99.90;;;;;;5007682;28;20054;-88
2023/04/16 01:24:07;;;;;;;1.55;1.25;;;7.50;99.90;;;;;;5010703;28;20426;-88
2023/04/16 01:26:34;;;;;;;2.33;1.27;;;7.40;99.90;;;;;;5007686;28;20203;-88
2023/04/16 01:29:01;;;;;;;1.58;1.20;;;7.50;99.90;;;;;;4976568;28;20116;-88
2023/04/16 01:31:31;;;;;;;1.48;1.27;;;7.50;99.90;;;;;;5012144;28;20136;-88
2023/04/16 01:34:01;;;;;;;1.70;1.30;;;7.50;99.90;;;;;;5012536;28;20194;-88
2023/04/16 01:36:28;;;;;;;2.42;1.73;;;7.50;99.90;;;;;;5012379;28;20524;-88
2023/04/16 01:38:56;;;;;;;1.80;1.23;;;7.50;99.90;;;;;;5008397;28;20058;-88
2023/04/16 01:41:23;;;;;;;2.05;1.40;;;7.50;99.90;;;;;;5009396;28;20061;-88
2023/04/16 01:43:49;;;;;;;1.77;1.30;;;7.50;99.90;;;;;;5011684;28;20049;-87
2023/04/16 01:46:22;;;;;;;2.22;1.58;;;7.50;99.90;;;;;;5012111;28;20125;-88
2023/04/16 01:48:49;;;;;;;1.50;1.40;;;7.50;99.90;;;;;;5012754;28;20080;-88
2023/04/16 01:51:16;;;;;;;1.52;1.13;;;7.50;99.90;;;;;;5011746;28;20443;-87
2023/04/16 01:53:43;;;;;;;1.40;1.08;;;7.50;99.90;;;;;;5011148;28;20057;-88
2023/04/16 01:56:10;;;;;;;1.88;1.45;;;7.50;99.90;;;;;;5011784;28;20501;-88
2023/04/16 01:58:37;;;;;;;1.50;1.20;;;7.40;99.90;;;;;;5012267;28;20436;-88
2023/04/16 02:01:04;;;;;;;1.90;1.38;;;7.50;99.90;;;;;;5012103;28;20072;-87
2023/04/16 02:03:31;;;;;;;1.90;1.30;;;7.50;99.90;;;;;;5011692;28;20057;-87
2023/04/16 02:06:00;;;;;;;1.73;1.20;;;7.40;99.90;;;;;;5012042;28;20056;-87
2023/04/16 02:08:26;;;;;;;1.50;1.40;;;7.40;99.90;;;;;;5011565;28;20408;-87
2023/04/16 02:10:54;;;;;;;1.42;1.23;;;7.40;99.90;;;;;;5011817;28;20119;-87
2023/04/16 02:13:22;;;;;;;1.73;1.33;;;7.40;99.90;;;;;;5011194;28;20125;-88
2023/04/16 02:15:49;;;;;;;1.63;1.25;;;7.30;99.90;;;;;;5011488;28;20132;-87
2023/04/16 02:18:16;;;;;;;1.83;1.10;;;7.30;99.90;;;;;;5011190;28;20167;-88
2023/04/16 02:20:44;;;;;;;1.60;1.20;;;7.20;99.90;;;;;;5010792;28;20053;-88
2023/04/16 02:23:13;;;;;;;1.13;0.90;;;7.20;99.90;;;;;;5002196;28;20508;-88
2023/04/16 02:25:41;;;;;;;1.48;1.20;;;7.20;99.90;;;;;;5017043;28;20049;-88
2023/04/16 02:28:09;;;;;;;1.92;1.30;;;7.20;99.90;;;;;;5010725;28;20143;-89
2023/04/16 02:30:36;;;;;;;1.30;1.10;;;7.10;99.90;;;;;;5010713;28;20187;-89
2023/04/16 02:33:04;;;;;;;2.05;1.20;;;7.20;99.90;;;;;;5010108;28;20580;-88
2023/04/16 02:35:34;;;;;;;2.20;1.17;;;7.20;99.90;;;;;;5008246;28;20057;-89
2023/04/16 02:38:01;;;;;;;2.13;1.30;;;7.20;99.90;;;;;;4996605;28;20056;-88
2023/04/16 02:40:29;;;;;;;1.88;1.35;;;7.20;99.90;;;;;;5011674;28;20595;-88
2023/04/16 02:42:56;;;;;;;1.48;1.25;;;7.20;99.90;;;;;;5009025;28;20061;-87
2023/04/16 02:45:23;;;;;;;1.40;1.08;;;7.30;99.90;;;;;;5010475;28;20045;-88
2023/04/16 02:47:50;;;;;;;1.63;1.30;;;7.30;99.90;;;;;;5011541;28;20065;-88
2023/04/16 02:50:17;;;;;;;1.20;1.00;;;7.30;99.90;;;;;;5011854;28;20045;-87
2023/04/16 02:52:44;;;;;;;1.05;0.98;;;7.20;99.90;;;;;;5011055;28;20045;-88
2023/04/16 02:55:11;;;;;;;2.00;1.20;;;7.30;99.90;;;;;;5010663;28;20136;-89
2023/04/16 02:57:38;;;;;;;1.30;0.88;;;7.20;99.90;;;;;;5010932;28;20153;-88
2023/04/16 03:00:06;;;;;;;1.75;1.30;;;7.30;99.90;;;;;;5011210;28;20504;-88
2023/04/16 03:02:33;;;;;;;1.10;0.90;;;7.30;99.90;;;;;;5010661;28;20111;-88
2023/04/16 03:05:03;;;;;;;1.27;1.00;;;7.30;99.90;;;;;;5007532;28;20054;-88
2023/04/16 03:07:30;;;;;;;1.30;1.10;;;7.30;99.90;;;;;;4999491;28;20654;-88
2023/04/16 03:09:57;;;;;;;1.20;1.10;;;7.30;99.90;;;;;;5026925;28;20516;-88
2023/04/16 03:12:24;;;;;;;1.40;1.17;;;7.30;99.90;;;;;;5027439;28;20119;-87
2023/04/16 03:14:51;;;;;;;1.15;0.90;;;7.30;99.90;;;;;;5011314;28;20521;-89
2023/04/16 03:17:18;;;;;;;1.00;0.70;;;7.30;99.90;;;;;;5011782;28;20068;-89
2023/04/16 03:19:45;;;;;;;1.15;0.90;;;7.30;99.90;;;;;;5011627;28;20144;-90
2023/04/16 03:22:12;;;;;;;0.93;0.75;;;7.30;99.90;;;;;;5010604;28;20068;-89
2023/04/16 03:24:39;;;;;;;1.48;0.70;;;7.30;99.90;;;;;;5010933;28;20140;-89
2023/04/16 03:27:06;;;;;;;1.00;0.90;;;7.30;99.90;;;;;;5011248;28;20499;-89
2023/04/16 03:29:37;;;;;;;1.52;0.70;;;7.30;99.90;;;;;;5011252;28;20184;-90
2023/04/16 03:32:04;;;;;;;1.00;0.68;;;7.30;99.90;;;;;;5011992;28;20049;-88
2023/04/16 03:34:33;;;;;;;1.08;0.90;;;7.30;99.90;;;;;;5011262;28;20183;-89
2023/04/16 03:37:00;;;;;;;0.50;0.50;;;7.30;99.90;;;;;;5011263;28;20795;-89
2023/04/16 03:39:28;;;;;;;0.55;0.55;;;7.40;99.90;;;;;;5011066;28;20084;-89
2023/04/16 03:41:55;;;;;;;0.73;0.68;;;7.30;99.90;;;;;;5027815;28;20060;-89
2023/04/16 03:44:22;;;;;;;0.85;0.80;;;7.40;99.90;;;;;;5027437;28;20084;-88
2023/04/16 03:46:50;;;;;;;0.98;0.70;;;7.40;99.90;;;;;;5008328;28;20454;-89
2023/04/16 03:49:17;;;;;;;1.02;0.75;;;7.40;99.90;;;;;;4991584;28;20062;-90
2023/04/16 03:51:43;;;;;;;0.98;0.73;;;7.40;99.90;;;;;;4991821;28;20077;-89
2023/04/16 03:54:11;;;;;;;0.80;0.60;;;7.40;99.90;;;;;;5006263;28;20049;-89
2023/04/16 03:56:41;;;;;;;1.27;1.17;;;7.40;99.90;;;;;;5027405;28;20144;-90
2023/04/16 03:59:09;;;;;;;1.10;0.80;;;7.50;99.90;;;;;;4996296;28;20088;-89
2023/04/16 04:01:36;;;;;;;0.82;0.70;;;7.40;99.90;;;;;;5027079;28;20045;-89
2023/04/16 04:04:06;;;;;;;0.75;0.60;;;7.50;99.90;;;;;;5027129;28;20420;-89
2023/04/16 04:06:34;;;;;;;0.60;0.60;;;7.40;99.90;;;;;;5010564;28;20068;-88
2023/04/16 04:09:01;;;;;;;1.13;0.82;;;7.40;99.90;;;;;;5010103;28;20472;-89
2023/04/16 04:11:28;;;;;;;0.73;0.70;;;7.40;99.90;;;;;;5010285;28;20068;-90
2023/04/16 04:13:55;;;;;;;0.73;0.70;;;7.40;99.90;;;;;;5010554;28;20136;-90
2023/04/16 04:16:22;;;;;;;0.57;0.50;;;7.50;99.90;;;;;;5007047;28;20477;-89
2023/04/16 04:18:49;;;;;;;1.10;1.00;;;7.50;99.90;;;;;;4991782;28;20073;-89
2023/04/16 04:21:22;;;;;;;1.10;0.70;;;7.50;99.90;;;;;;4991547;28;20132;-89
2023/04/16 04:23:52;;;;;;;1.08;0.60;;;7.50;99.90;;;;;;5002836;28;20553;-89
2023/04/16 04:26:21;;;;;;;0.75;0.60;;;7.50;99.90;;;;;;5026354;28;20050;-88
2023/04/16 04:28:51;;;;;;;1.02;0.73;;;7.50;99.90;;;;;;5010828;28;20059;-90
2023/04/16 04:31:18;;;;;;;0.90;0.60;;;7.50;99.90;;;;;;5010742;28;20145;-90
2023/04/16 04:33:45;;;;;;;1.35;0.80;;;7.50;99.90;;;;;;5010621;28;20167;-92
2023/04/16 04:36:12;;;;;;;0.82;0.63;;;7.50;99.90;;;;;;5013535;28;20771;-91
2023/04/16 04:38:39;;;;;;;1.45;0.65;;;7.60;99.90;;;;;;5013467;28;20568;-92
2023/04/16 04:41:14;;;;;;;0.75;0.60;;;7.60;99.90;;;;;;5013145;28;20597;-92
2023/04/16 04:43:41;;;;;;;0.82;0.80;;;7.60;99.90;;;;;;5013661;28;20146;-92
2023/04/16 04:46:08;;;;;;;1.35;0.90;;;7.60;99.90;;;;;;5011450;28;20139;-91
2023/04/16 04:48:35;;;;;;;1.08;0.80;;;7.70;99.90;;;;;;5011814;28;20232;-94
2023/04/16 04:51:03;;;;;;;1.05;0.80;;;7.70;99.90;;;;;;5015895;28;20115;-89
2023/04/16 04:53:31;;;;;;;1.10;1.00;;;7.70;99.90;;;;;;5010728;28;20057;-88
2023/04/16 04:56:00;;;;;;;1.60;1.00;;;7.70;99.90;;;;;;5010952;28;20053;-89
2023/04/16 04:58:37;;;;;;;1.25;1.00;;;7.70;99.90;;;;;;5015980;28;20053;-92
2023/04/16 05:01:04;;;;;;;1.50;1.27;;;7.70;99.90;;;;;;5012248;28;20425;-91
2023/04/16 05:03:32;;;;;;;1.45;0.93;;;7.70;99.90;;;;;;5007533;28;20060;-91
2023/04/16 05:05:59;;;;;;;0.98;0.85;;;7.70;99.90;;;;;;5012358;28;20049;-91
2023/04/16 05:08:26;;;;;;;1.52;1.20;;;7.80;99.90;;;;;;5010832;28;20812;-91
2023/04/16 05:10:53;;;;;;;1.27;0.75;;;7.80;99.90;;;;;;5010025;28;20123;-91
2023/04/16 05:13:20;;;;;;;1.35;1.17;;;7.80;99.90;;;;;;5025781;28;20059;-92
2023/04/16 05:15:47;;;;;;;1.58;1.10;;;7.80;99.90;;;;;;5010299;28;20504;-89
2023/04/16 05:18:14;;;;;;;1.05;0.82;;;7.90;99.90;;;;;;5015760;28;20053;-91
2023/04/16 05:20:41;;;;;;;1.02;0.93;;;7.90;99.90;;;;;;5010176;28;20164;-90
2023/04/16 05:23:08;;;;;;;1.25;1.10;;;7.90;99.90;;;;;;5005670;28;20042;-90
2023/04/16 05:25:35;;;;;;;1.20;0.90;;;7.90;99.90;;;;;;5004350;28;20088;-91
2023/04/16 05:28:02;;;;;;;0.93;0.82;;;8.00;99.90;;;;;;5011069;28;20122;-90
2023/04/16 05:30:29;;;;;;;1.50;1.10;;;8.00;99.90;;;;;;5010952;28;20054;-91
2023/04/16 05:32:56;;;;;;;1.10;0.98;;;8.00;99.90;;;;;;5009245;28;20050;-91
2023/04/16 05:35:23;;;;;;;0.93;0.70;;;8.00;99.90;;;;;;4996109;28;20049;-91
2023/04/16 05:37:50;;;;;;;2.35;1.20;;;8.00;99.90;;;;;;4992374;28;20112;-91
2023/04/16 05:40:17;;;;;;;1.17;0.90;;;8.10;99.90;;;;;;5004830;28;20053;-91
2023/04/16 05:42:44;;;;;;;1.10;1.00;;;8.10;99.90;;;;;;5026941;28;20046;-91
2023/04/16 05:45:11;;;;;;;1.90;1.10;;;8.10;99.90;;;;;;5008304;28;20099;-90
2023/04/16 05:47:38;;;;;;;1.67;1.38;;;8.20;99.90;;;;;;5009344;28;20072;-90
2023/04/16 05:50:06;;;;;;;0.98;0.90;;;8.20;99.90;;;;;;5009254;28;20060;-89
2023/04/16 05:52:33;;;;;;;1.02;0.90;;;8.30;99.90;;;;;;5008645;28;20795;-90
2023/04/16 05:55:00;;;;;;;1.00;0.88;;;8.30;99.90;;;;;;5007714;28;20081;-90
2023/04/16 05:57:28;;;;;;;1.70;1.30;;;8.40;99.90;;;;;;5009054;28;20057;-89
2023/04/16 05:59:55;;;;;;;1.55;1.25;;;8.40;99.90;;;;;;5009013;28;20057;-90
2023/04/16 06:02:22;;;;;;;1.45;1.27;;;8.50;99.90;;;;;;5024953;28;20073;-91
2023/04/16 06:04:49;;;;;;;1.60;1.17;;;8.50;99.90;;;;;;5009529;28;20081;-90
2023/04/16 06:07:16;;;;;;;1.92;1.40;;;8.60;99.90;;;;;;5005179;28;20468;-90
2023/04/16 06:09:44;;;;;;;2.33;1.70;;;8.60;99.90;;;;;;5009093;28;20163;-90
2023/04/16 06:12:10;;;;;;;2.00;1.70;;;8.70;99.90;;;;;;5008750;28;20053;-90
2023/04/16 06:14:37;;;;;;;1.63;1.50;;;8.70;99.90;;;;;;5008819;28;20085;-89
2023/04/16 06:17:04;;;;;;;1.65;1.20;;;8.70;99.90;;;;;;5006136;28;20430;-90
2023/04/16 06:19:31;;;;;;;1.95;1.50;;;8.80;99.90;;;;;;4989779;28;20548;-90
2023/04/16 06:21:58;;;;;;;2.55;1.48;;;8.90;99.90;;;;;;4991405;28;20050;-89
2023/04/16 06:24:25;;;;;;;1.23;1.08;;;9.00;99.90;;;;;;5007357;28;20654;-90
2023/04/16 06:26:53;;;;;;;1.38;1.13;;;9.10;99.90;;;;;;5008607;28;20085;-90
2023/04/16 06:29:20;;;;;;;1.60;1.33;;;9.20;99.90;;;;;;5009279;28;20104;-90
2023/04/16 06:31:59;;;;;;;1.73;1.30;;;9.30;99.90;;;;;;5009527;28;20235;-90
2023/04/16 06:34:27;;;;;;;1.63;1.38;;;9.40;99.90;;;;;;5005314;28;20081;-91
2023/04/16 06:36:54;;;;;;;1.67;1.40;;;9.40;99.90;;;;;;5008251;28;20347;-91
2023/04/16 06:39:21;;;;;;;1.80;1.50;;;9.50;99.90;;;;;;5010684;28;20053;-92
2023/04/16 06:41:48;;;;;;;1.23;1.05;;;9.60;99.90;;;;;;5025763;28;20069;-92
2023/04/16 06:44:15;;;;;;;2.13;1.50;;;9.70;99.90;;;;;;5008982;28;20083;-92
2023/04/16 06:46:41;;;;;;;1.73;1.55;;;9.80;99.90;;;;;;5011581;28;20076;-92
2023/04/16 06:49:11;;;;;;;2.10;1.63;;;9.90;99.90;;;;;;5014172;28;20056;-93
2023/04/16 06:51:39;;;;;;;2.35;1.90;;;10.10;99.90;;;;;;5010834;28;20049;-90
2023/04/16 06:54:05;;;;;;;2.17;1.55;;;10.10;99.90;;;;;;5024016;28;20057;-90
2023/04/16 06:56:33;;;;;;;1.50;1.20;;;10.20;99.90;;;;;;4999988;28;20053;-90
2023/04/16 06:59:00;;;;;;;2.05;1.50;;;10.30;99.90;;;;;;5006777;28;20050;-91
2023/04/16 07:01:27;;;;;;;1.55;1.45;;;10.50;99.90;;;;;;5020740;28;20124;-91
2023/04/16 07:03:54;;;;;;;1.48;1.20;;;10.60;99.90;;;;;;5006364;28;20115;-92
2023/04/16 07:06:21;;;;;;;1.80;1.38;;;10.60;99.90;;;;;;5029744;28;20049;-87
2023/04/16 07:08:49;;;;;;;1.80;1.40;;;10.70;99.90;;;;;;5003571;28;20077;-90
2023/04/16 07:11:17;;;;;;;2.13;1.67;;;10.80;99.90;;;;;;4998746;28;20060;-89
2023/04/16 07:13:45;;;;;;;2.00;1.25;;;10.90;99.90;;;;;;5003019;28;20077;-88
2023/04/16 07:16:12;;;;;;;1.58;1.33;;;11.00;99.90;;;;;;5001337;28;20102;-88
2023/04/16 07:18:39;;;;;;;1.63;1.30;;;11.10;99.90;;;;;;5004912;28;20127;-89
2023/04/16 07:21:06;;;;;;;1.58;1.15;;;11.20;99.90;;;;;;5020716;28;20064;-89
2023/04/16 07:23:33;;;;;;;1.80;1.30;;;11.20;99.90;;;;;;5005118;28;20088;-89
2023/04/16 07:26:00;;;;;;;1.30;1.10;;;11.30;99.90;;;;;;5024879;28;20073;-88
2023/04/16 07:28:27;;;;;;;1.33;1.20;;;11.40;99.90;;;;;;5006881;28;20049;-89
2023/04/16 07:30:54;;;;;;;1.38;1.27;;;11.50;99.90;;;;;;5005156;28;20057;-88
2023/04/16 07:33:21;;;;;;;1.23;1.10;;;11.60;99.90;;;;;;5002121;28;20049;-87
2023/04/16 07:35:50;;;;;;;1.48;1.30;;;11.60;99.90;;;;;;5005449;28;20116;-91
2023/04/16 07:38:16;;;;;;;1.60;1.20;;;11.70;99.90;;;;;;5023525;28;20428;-90
2023/04/16 07:40:43;;;;;;;1.80;1.30;;;11.80;99.90;;;;;;5027831;28;20121;-90
2023/04/16 07:43:10;;;;;;;2.30;1.58;;;11.80;99.90;;;;;;5008634;28;20049;-94
2023/04/16 07:45:38;;;;;;;1.58;1.42;;;11.90;99.90;;;;;;5007221;28;20081;-92
2023/04/16 07:48:07;;;;;;;1.30;1.20;;;12.00;99.90;;;;;;5006362;28;20073;-89
2023/04/16 07:50:34;;;;;;;1.48;1.38;;;12.00;99.90;;;;;;5004553;28;20065;-90
2023/04/16 07:53:01;;;;;;;1.10;1.00;;;12.20;99.90;;;;;;5022523;28;20073;-94
2023/04/16 07:55:28;;;;;;;1.40;1.00;;;12.20;99.90;;;;;;5006779;28;20121;-91
2023/04/16 07:57:55;;;;;;;1.92;1.42;;;12.30;99.90;;;;;;5008089;28;20053;-91
2023/04/16 08:00:22;;;;;;;1.52;1.17;;;12.30;99.90;;;;;;5007844;28;20054;-93
2023/04/16 08:02:52;;;;;;;1.40;1.17;;;12.40;99.90;;;;;;5022332;28;20053;-92
2023/04/16 08:05:19;;;;;;;1.90;1.25;;;12.60;99.90;;;;;;5006238;28;20053;-90
2023/04/16 08:07:46;;;;;;;1.60;1.17;;;12.60;99.90;;;;;;5017342;28;20067;-92
2023/04/16 08:10:13;;;;;;;1.90;1.40;;;12.70;99.90;;;;;;5011805;28;20413;-91
2023/04/16 08:12:40;;;;;;;2.30;1.30;;;12.80;99.90;;;;;;5010978;28;20111;-91
2023/04/16 08:15:08;;;;;;;1.60;1.30;;;12.80;99.90;;;;;;5004315;28;20049;-91
2023/04/16 08:17:36;;;;;;;1.35;1.20;;;12.80;99.90;;;;;;5007056;28;20086;-91
2023/04/16 08:20:05;;;;;;;1.98;1.50;;;12.90;99.90;;;;;;5011436;28;20111;-90
2023/04/16 08:22:32;;;;;;;1.50;1.20;;;12.90;99.90;;;;;;5007389;28;20046;-92
2023/04/16 08:24:59;;;;;;;1.75;1.30;;;12.90;99.90;;;;;;5010933;28;20077;-92
2023/04/16 08:27:26;;;;;;;1.85;1.55;;;13.10;99.90;;;;;;5011720;28;20042;-93
2023/04/16 08:29:53;;;;;;;1.60;1.30;;;13.10;99.90;;;;;;5012881;28;20065;-92
2023/04/16 08:32:20;;;;;;;2.78;1.02;;;13.20;99.90;;;;;;5012903;28;20094;-91
2023/04/16 08:34:47;;;;;;;1.45;1.10;;;13.30;99.90;;;;;;5004911;28;20193;-83
2023/04/16 08:37:14;;;;;;;1.50;1.05;;;13.40;99.90;;;;;;5023385;28;20051;-87
2023/04/16 08:39:41;;;;;;;0.93;0.80;;;13.50;99.90;;;;;;5024729;28;20077;-88
2023/04/16 08:42:32;;;;;;;1.77;1.33;;;13.50;99.90;;;;;;5004010;28;20144;-87
2023/04/16 08:45:10;;;;;;;1.13;0.90;;;13.60;99.90;;;;;;4993389;28;20425;-87
2023/04/16 08:47:37;;;;;;;1.35;0.70;;;13.70;99.90;;;;;;5025290;28;20053;-88
2023/04/16 08:50:05;;;;;;;0.80;0.70;;;13.80;99.90;;;;;;5007224;28;20045;-88
2023/04/16 08:52:32;;;;;;;1.05;0.95;;;13.90;99.90;;;;;;5008422;28;20089;-88
2023/04/16 08:55:13;;;;;;;1.20;0.90;;;13.90;99.90;;;;;;4990354;28;20057;-88
2023/04/16 08:57:47;;;;;;;0.70;0.70;;;14.00;99.90;;;;;;5025323;28;20107;-87
2023/04/16 09:00:16;;;;;;;0.95;0.75;;;14.10;99.90;;;;;;5004706;28;20112;-85
2023/04/16 09:02:42;;;;;;;0.63;0.60;;;14.10;99.90;;;;;;5002317;28;20397;-90
2023/04/16 09:05:11;;;;;;;1.10;0.98;;;14.10;99.90;;;;;;5005480;28;20365;-86
2023/04/16 09:07:40;;;;;;;1.88;1.25;;;14.00;99.90;;;;;;5002827;28;20049;-87
2023/04/16 09:10:07;;;;;;;2.00;1.13;;;14.10;99.90;;;;;;5005211;28;20049;-87
2023/04/16 09:12:34;;;;;;;2.08;1.65;;;14.00;99.90;;;;;;5028899;28;20045;-87
2023/04/16 09:15:02;;;;;;;1.63;1.35;;;13.90;99.90;;;;;;5006812;28;20064;-87
2023/04/16 09:17:29;;;;;;;1.38;1.20;;;14.00;99.90;;;;;;5008739;28;20042;-88
2023/04/16 09:19:56;;;;;;;1.13;0.95;;;14.20;99.90;;;;;;5006733;28;20063;-88
2023/04/16 09:22:23;;;;;;;1.42;1.08;;;14.30;99.90;;;;;;5004538;28;20049;-89
2023/04/16 09:24:51;;;;;;;1.50;1.00;;;14.50;99.90;;;;;;4985854;28;20057;-85
2023/04/16 09:27:18;;;;;;;1.27;0.90;;;14.60;99.90;;;;;;5019526;28;20398;-84
2023/04/16 09:29:45;;;;;;;1.38;0.82;;;14.70;99.90;;;;;;5004979;28;20084;-89
2023/04/16 09:32:12;;;;;;;1.75;1.10;;;14.80;99.90;;;;;;4993190;28;20041;-88
2023/04/16 09:34:56;;;;;;;1.35;1.00;;;14.70;99.90;;;;;;5005865;28;20065;-83
2023/04/16 09:37:24;;;;;;;1.55;0.90;;;14.90;99.90;;;;;;4981388;28;20107;-87
2023/04/16 09:39:56;;;;;;;0.70;0.70;;;15.10;99.90;;;;;;5015968;28;20080;-86
2023/04/16 09:42:28;;;;;;;0.80;0.70;;;15.20;99.90;;;;;;5006411;28;20129;-85
2023/04/16 09:44:55;;;;;;;1.10;0.90;;;15.30;99.90;;;;;;5005296;28;20077;-86
2023/04/16 09:47:37;;;;;;;1.13;0.80;;;15.40;99.90;;;;;;5007943;28;20050;-87
2023/04/16 09:50:04;;;;;;;0.85;0.75;;;15.40;99.90;;;;;;4994426;28;20125;-86
2023/04/16 09:52:31;;;;;;;1.15;0.80;;;15.60;99.90;;;;;;5020549;28;20048;-88
2023/04/16 09:54:59;;;;;;;1.58;1.25;;;15.70;99.90;;;;;;5003590;28;20455;-86
2023/04/16 09:57:26;;;;;;;1.48;0.93;;;15.70;99.90;;;;;;5006357;28;20394;-87
2023/04/16 09:59:56;;;;;;;1.35;0.85;;;15.80;99.90;;;;;;4994250;28;20443;-87
2023/04/16 10:02:27;;;;;;;1.05;0.80;;;15.90;99.90;;;;;;5001863;28;20107;-87
2023/04/16 10:04:54;;;;;;;0.50;0.50;;;16.00;99.90;;;;;;5001839;28;20333;-82
2023/04/16 10:07:21;;;;;;;1.13;0.90;;;16.20;99.90;;;;;;5016807;28;20063;-87
2023/04/16 10:09:48;;;;;;;0.77;0.63;;;16.20;99.90;;;;;;5000055;28;20099;-87
2023/04/16 10:12:15;;;;;;;1.02;0.95;;;16.20;99.90;;;;;;5021157;28;20045;-87
2023/04/16 10:14:43;;;;;;;0.90;0.80;;;16.30;99.90;;;;;;5005621;28;20053;-87
2023/04/16 10:17:10;;;;;;;1.33;1.08;;;16.20;99.90;;;;;;5008362;28;20103;-86
2023/04/16 10:19:40;;;;;;;1.42;1.10;;;16.30;99.90;;;;;;5009336;28;20056;-86
2023/04/16 10:22:07;;;;;;;1.30;1.02;;;16.20;99.90;;;;;;5009650;28;20053;-86
2023/04/16 10:24:34;;;;;;;1.42;1.02;;;16.30;99.90;;;;;;5009592;28;20078;-86
2023/04/16 10:27:01;;;;;;;0.80;0.70;;;16.40;99.90;;;;;;5007772;28;20045;-86
2023/04/16 10:29:29;;;;;;;0.80;0.77;;;16.40;99.90;;;;;;5001289;28;20103;-86
2023/04/16 10:31:56;;;;;;;0.70;0.60;;;16.40;99.90;;;;;;5005832;28;20061;-87
2023/04/16 10:34:23;;;;;;;0.77;0.70;;;16.30;99.90;;;;;;5000617;28;20147;-87
2023/04/16 10:36:51;;;;;;;0.63;0.60;;;16.40;99.90;;;;;;4998674;28;20053;-87
2023/04/16 10:39:22;;;;;;;0.68;0.68;;;16.60;99.90;;;;;;5016365;28;20233;-87
2023/04/16 10:41:50;;;;;;;1.08;0.98;;;16.60;99.90;;;;;;5007169;28;20054;-86
2023/04/16 10:44:20;;;;;;;1.00;0.90;;;16.40;99.90;;;;;;5004292;28;20049;-87
2023/04/16 10:50:02;;;;;;;0.90;0.60;;;16.50;99.90;;;;;;4997657;28;20065;-87
2023/04/16 10:53:19;;;;;;;0.57;0.50;;;16.70;99.90;;;;;;5004078;28;20050;-87
2023/04/16 10:56:04;;;;;;;0.60;0.60;;;16.70;99.90;;;;;;5008541;28;20068;-86
2023/04/16 10:58:34;;;;;;;0.60;0.50;;;16.80;99.90;;;;;;5020228;28;20497;-86
2023/04/16 11:01:15;;;;;;;0.55;0.50;;;16.90;99.90;;;;;;5004996;28;20067;-86
2023/04/16 11:04:00;;;;;;;0.50;0.50;;;17.10;99.30;;;;;;5001512;28;20053;-87
2023/04/16 11:06:34;;;;;;;0.60;0.50;;;17.20;99.70;;;;;;5003269;28;20053;-87
2023/04/16 11:09:10;;;;;;;0.73;0.55;;;17.40;99.50;;;;;;5003380;28;20053;-88
2023/04/16 11:11:52;;;;;;;0.57;0.52;;;17.40;98.80;;;;;;5003947;28;20075;-87
2023/04/16 11:14:21;;;;;;;0.65;0.50;;;17.50;99.00;;;;;;4999215;28;20054;-87
2023/04/16 11:16:49;;;;;;;0.60;0.52;;;17.50;99.40;;;;;;4996836;28;20161;-87
2023/04/16 11:19:18;;;;;;;0.75;0.50;;;17.60;99.40;;;;;;4997077;28;20045;-87
2023/04/16 11:21:45;;;;;;;0.60;0.50;;;17.70;99.50;;;;;;5001228;28;20654;-87
2023/04/16 11:24:12;;;;;;;0.63;0.63;;;17.60;98.30;;;;;;5004317;28;20130;-87
2023/04/16 11:26:40;;;;;;;0.50;0.50;;;17.80;97.90;;;;;;5005415;28;20057;-87
2023/04/16 11:29:12;;;;;;;0.30;0.30;;;18.00;97.40;;;;;;5006955;28;20053;-88
2023/04/16 11:31:48;;;;;;;0.40;0.40;;;18.20;96.60;;;;;;5006519;28;20052;-87
2023/04/16 11:34:15;;;;;;;0.68;0.52;;;18.20;97.50;;;;;;5006039;28;20054;-87
2023/04/16 11:36:43;;;;;;;0.80;0.60;;;18.10;96.00;;;;;;4997139;28;20053;-87
2023/04/16 11:39:10;;;;;;;1.02;0.52;;;18.00;96.00;;;;;;4998846;28;20046;-86
2023/04/16 11:41:48;;;;;;;0.52;0.40;;;17.80;96.20;;;;;;5017833;28;20572;-87
2023/04/16 11:44:26;;;;;;;0.85;0.63;;;17.70;95.80;;;;;;4994298;28;20745;-84
2023/04/16 11:46:53;;;;;;;1.05;0.57;;;17.70;95.20;;;;;;5023540;28;20049;-84
2023/04/16 11:49:29;;;;;;;1.13;0.40;;;17.60;96.00;;;;;;5021592;28;20055;-89
2023/04/16 11:52:00;;;;;;;0.25;0.25;;;17.80;95.40;;;;;;5011591;28;20091;-89
2023/04/16 11:54:33;;;;;;;0.30;0.30;;;18.10;94.40;;;;;;5007142;28;20463;-90
2023/04/16 11:57:05;;;;;;;0.32;0.30;;;18.40;94.20;;;;;;5005307;28;20065;-88
2023/04/16 11:59:33;;;;;;;0.30;0.30;;;18.60;94.20;;;;;;4992488;28;20049;-89
2023/04/16 12:02:00;;;;;;;0.28;0.28;;;18.90;94.80;;;;;;4999061;28;20069;-89
2023/04/16 12:04:28;;;;;;;0.60;0.40;;;19.10;94.40;;;;;;5013201;28;20080;-90
2023/04/16 12:07:11;;;;;;;0.40;0.40;;;19.10;93.60;;;;;;5007495;28;20049;-89
2023/04/16 12:09:42;;;;;;;0.68;0.57;;;19.20;93.70;;;;;;4991228;28;20053;-90
2023/04/16 12:12:29;;;;;;;0.60;0.60;;;19.10;93.80;;;;;;4991692;28;20398;-89
2023/04/16 12:15:02;;;;;;;0.77;0.55;;;18.90;93.50;;;;;;5005781;28;20706;-87
2023/04/16 12:17:33;;;;;;;0.93;0.60;;;18.90;93.50;;;;;;4997925;28;20068;-88
2023/04/16 12:20:04;;;;;;;1.38;0.80;;;18.80;93.90;;;;;;5006731;28;20059;-87
2023/04/16 12:22:35;;;;;;;1.40;0.88;;;18.60;93.20;;;;;;4992633;28;20058;-87
2023/04/16 12:25:04;;;;;;;1.50;0.98;;;18.40;93.90;;;;;;5024607;28;20050;-90
2023/04/16 12:27:49;;;;;;;0.85;0.65;;;18.10;95.00;;;;;;5025810;28;20058;-89
2023/04/16 12:30:23;;;;;;;0.77;0.70;;;18.10;94.50;;;;;;5013456;28;20045;-87
2023/04/16 12:32:51;;;;;;;0.50;0.50;;;18.00;94.20;;;;;;5005991;28;20096;-85
2023/04/16 12:35:32;;;;;;;0.80;0.50;;;18.00;95.50;;;;;;5006070;28;20362;-90
2023/04/16 12:37:59;;;;;;;0.45;0.40;;;18.10;93.60;;;;;;5022813;28;20053;-89
2023/04/16 12:40:29;;;;;;;0.55;0.50;;;18.30;93.50;;;;;;5006593;28;20077;-89
2023/04/16 12:42:56;;;;;;;0.65;0.50;;;18.50;93.80;;;;;;5005280;28;20109;-88
2023/04/16 12:45:23;;;;;;;0.40;0.40;;;18.60;92.40;;;;;;5003242;28;20110;-88
2023/04/16 12:47:50;;;;;;;0.40;0.40;;;18.80;92.40;;;;;;4997913;28;20203;-88
2023/04/16 12:50:17;;;;;;;0.50;0.43;;;19.10;92.30;;;;;;5004902;28;20053;-88
2023/04/16 12:52:44;;;;;;;0.57;0.50;;;19.50;91.90;;;;;;5007587;28;20049;-87
2023/04/16 12:55:12;;;;;;;0.30;0.30;;;19.50;92.10;;;;;;4998530;28;20061;-88
2023/04/16 12:57:41;;;;;;;0.30;0.30;;;19.70;92.10;;;;;;5007671;28;20053;-88
2023/04/16 13:00:18;;;;;;;0.40;0.40;;;20.10;91.40;;;;;;5006311;28;20049;-87
2023/04/16 13:02:45;;;;;;;0.98;0.77;;;20.50;91.50;;;;;;5005508;28;20052;-87